sensor_id;sensor_type;location;lat;lon;timestamp;P1;durP1;ratioP1;P2;durP2;ratioP2
11222;SDS011;5668;52.012;8.724;2023-05-28T00:01:01;9.00;;;6.38;;
11222;SDS011;5668;52.012;8.724;2023-05-28T00:03:30;10.85;;;7.50;;
11222;SDS011;5668;52.012;8.724;2023-05-28T00:06:00;9.57;;;7.13;;
11222;SDS011;5668;52.012;8.724;2023-05-28T00:08:27;10.03;;;7.03;;
11222;SDS011;5668;52.012;8.724;2023-05-28T00:10:55;8.83;;;7.03;;
11222;SDS011;5668;52.012;8.724;2023-05-28T00:13:25;9.13;;;7.03;;
11222;SDS011;5668;52.012;8.724;2023-05-28T00:15:52;10.17;;;7.27;;
11222;SDS011;5668;52.012;8.724;2023-05-28T00:18:20;9.27;;;6.67;;
11222;SDS011;5668;52.012;8.724;2023-05-28T00:20:50;9.50;;;6.53;;
11222;SDS011;5668;52.012;8.724;2023-05-28T00:23:17;8.83;;;6.57;;
11222;SDS011;5668;52.012;8.724;2023-05-28T00:25:44;8.53;;;6.53;;
11222;SDS011;5668;52.012;8.724;2023-05-28T00:28:12;9.03;;;6.20;;
11222;SDS011;5668;52.012;8.724;2023-05-28T00:30:39;9.47;;;6.77;;
11222;SDS011;5668;52.012;8.724;2023-05-28T00:33:06;8.93;;;6.23;;
11222;SDS011;5668;52.012;8.724;2023-05-28T00:35:33;8.37;;;6.67;;
11222;SDS011;5668;52.012;8.724;2023-05-28T00:38:02;8.93;;;7.07;;
11222;SDS011;5668;52.012;8.724;2023-05-28T00:40:29;9.13;;;6.20;;
11222;SDS011;5668;52.012;8.724;2023-05-28T00:42:56;8.23;;;6.50;;
11222;SDS011;5668;52.012;8.724;2023-05-28T00:45:23;8.73;;;6.60;;
11222;SDS011;5668;52.012;8.724;2023-05-28T00:47:51;8.50;;;6.77;;
11222;SDS011;5668;52.012;8.724;2023-05-28T00:50:19;9.63;;;6.77;;
11222;SDS011;5668;52.012;8.724;2023-05-28T00:52:47;8.80;;;6.40;;
11222;SDS011;5668;52.012;8.724;2023-05-28T00:55:18;7.50;;;6.27;;
11222;SDS011;5668;52.012;8.724;2023-05-28T00:57:46;9.57;;;6.77;;
11222;SDS011;5668;52.012;8.724;2023-05-28T01:00:14;9.00;;;6.60;;
11222;SDS011;5668;52.012;8.724;2023-05-28T01:02:43;8.73;;;6.63;;
11222;SDS011;5668;52.012;8.724;2023-05-28T01:05:10;12.60;;;7.47;;
11222;SDS011;5668;52.012;8.724;2023-05-28T01:07:39;9.27;;;6.50;;
11222;SDS011;5668;52.012;8.724;2023-05-28T01:10:07;9.03;;;6.57;;
11222;SDS011;5668;52.012;8.724;2023-05-28T01:12:39;8.30;;;6.57;;
11222;SDS011;5668;52.012;8.724;2023-05-28T01:15:09;9.47;;;6.70;;
11222;SDS011;5668;52.012;8.724;2023-05-28T01:17:37;10.13;;;6.40;;
11222;SDS011;5668;52.012;8.724;2023-05-28T01:20:06;8.73;;;6.17;;
11222;SDS011;5668;52.012;8.724;2023-05-28T01:22:38;9.13;;;6.70;;
11222;SDS011;5668;52.012;8.724;2023-05-28T01:25:14;9.37;;;6.17;;
11222;SDS011;5668;52.012;8.724;2023-05-28T01:27:42;8.60;;;6.73;;
11222;SDS011;5668;52.012;8.724;2023-05-28T01:30:09;8.60;;;5.80;;
11222;SDS011;5668;52.012;8.724;2023-05-28T01:32:37;7.27;;;6.33;;
11222;SDS011;5668;52.012;8.724;2023-05-28T01:35:05;8.00;;;6.03;;
11222;SDS011;5668;52.012;8.724;2023-05-28T01:37:35;9.00;;;6.10;;
11222;SDS011;5668;52.012;8.724;2023-05-28T01:40:06;8.07;;;6.10;;
11222;SDS011;5668;52.012;8.724;2023-05-28T01:42:38;7.53;;;5.33;;
11222;SDS011;5668;52.012;8.724;2023-05-28T01:45:06;8.77;;;6.60;;
11222;SDS011;5668;52.012;8.724;2023-05-28T01:47:36;6.57;;;5.83;;
11222;SDS011;5668;52.012;8.724;2023-05-28T01:50:04;8.57;;;6.57;;
11222;SDS011;5668;52.012;8.724;2023-05-28T01:52:34;7.53;;;6.67;;
11222;SDS011;5668;52.012;8.724;2023-05-28T01:55:01;8.97;;;7.10;;
11222;SDS011;5668;52.012;8.724;2023-05-28T01:57:29;9.50;;;7.00;;
11222;SDS011;5668;52.012;8.724;2023-05-28T01:59:58;8.87;;;6.63;;
11222;SDS011;5668;52.012;8.724;2023-05-28T02:02:25;8.50;;;6.47;;
11222;SDS011;5668;52.012;8.724;2023-05-28T02:04:52;8.40;;;6.37;;
11222;SDS011;5668;52.012;8.724;2023-05-28T02:07:20;8.57;;;6.77;;
11222;SDS011;5668;52.012;8.724;2023-05-28T02:09:47;7.90;;;5.93;;
11222;SDS011;5668;52.012;8.724;2023-05-28T02:12:14;8.33;;;6.33;;
11222;SDS011;5668;52.012;8.724;2023-05-28T02:14:42;8.17;;;5.43;;
11222;SDS011;5668;52.012;8.724;2023-05-28T02:17:10;7.77;;;6.03;;
11222;SDS011;5668;52.012;8.724;2023-05-28T02:19:38;7.30;;;5.83;;
11222;SDS011;5668;52.012;8.724;2023-05-28T02:22:05;6.53;;;5.30;;
11222;SDS011;5668;52.012;8.724;2023-05-28T02:24:36;7.03;;;5.53;;
11222;SDS011;5668;52.012;8.724;2023-05-28T02:27:04;7.43;;;6.17;;
11222;SDS011;5668;52.012;8.724;2023-05-28T02:29:31;7.40;;;5.77;;
11222;SDS011;5668;52.012;8.724;2023-05-28T02:31:59;8.23;;;6.27;;
11222;SDS011;5668;52.012;8.724;2023-05-28T02:34:28;8.00;;;6.43;;
11222;SDS011;5668;52.012;8.724;2023-05-28T02:36:56;7.67;;;6.57;;
11222;SDS011;5668;52.012;8.724;2023-05-28T02:39:25;9.50;;;6.17;;
11222;SDS011;5668;52.012;8.724;2023-05-28T02:41:52;6.47;;;5.77;;
11222;SDS011;5668;52.012;8.724;2023-05-28T02:44:19;6.67;;;5.57;;
11222;SDS011;5668;52.012;8.724;2023-05-28T02:46:47;6.77;;;5.60;;
11222;SDS011;5668;52.012;8.724;2023-05-28T02:49:14;6.33;;;5.60;;
11222;SDS011;5668;52.012;8.724;2023-05-28T02:51:43;7.53;;;5.70;;
11222;SDS011;5668;52.012;8.724;2023-05-28T02:54:10;6.50;;;5.80;;
11222;SDS011;5668;52.012;8.724;2023-05-28T02:56:37;7.53;;;6.00;;
11222;SDS011;5668;52.012;8.724;2023-05-28T02:59:04;6.43;;;5.57;;
11222;SDS011;5668;52.012;8.724;2023-05-28T03:01:32;10.43;;;6.30;;
11222;SDS011;5668;52.012;8.724;2023-05-28T03:03:59;7.87;;;5.77;;
11222;SDS011;5668;52.012;8.724;2023-05-28T03:06:26;8.27;;;6.30;;
11222;SDS011;5668;52.012;8.724;2023-05-28T03:08:55;9.33;;;7.10;;
11222;SDS011;5668;52.012;8.724;2023-05-28T03:11:22;10.27;;;6.83;;
11222;SDS011;5668;52.012;8.724;2023-05-28T03:13:49;7.97;;;6.73;;
11222;SDS011;5668;52.012;8.724;2023-05-28T03:16:17;8.13;;;6.43;;
11222;SDS011;5668;52.012;8.724;2023-05-28T03:18:44;7.57;;;6.80;;
11222;SDS011;5668;52.012;8.724;2023-05-28T03:21:11;8.77;;;6.77;;
11222;SDS011;5668;52.012;8.724;2023-05-28T03:23:38;8.80;;;6.77;;
11222;SDS011;5668;52.012;8.724;2023-05-28T03:26:07;7.93;;;6.43;;
11222;SDS011;5668;52.012;8.724;2023-05-28T03:28:34;6.77;;;6.13;;
11222;SDS011;5668;52.012;8.724;2023-05-28T03:31:01;7.57;;;5.97;;
11222;SDS011;5668;52.012;8.724;2023-05-28T03:33:29;8.17;;;6.50;;
11222;SDS011;5668;52.012;8.724;2023-05-28T03:35:56;8.53;;;6.13;;
11222;SDS011;5668;52.012;8.724;2023-05-28T03:38:23;7.03;;;6.20;;
11222;SDS011;5668;52.012;8.724;2023-05-28T03:40:50;10.20;;;6.27;;
11222;SDS011;5668;52.012;8.724;2023-05-28T03:43:19;8.70;;;6.17;;
11222;SDS011;5668;52.012;8.724;2023-05-28T03:45:46;7.47;;;5.87;;
11222;SDS011;5668;52.012;8.724;2023-05-28T03:48:13;7.67;;;5.80;;
11222;SDS011;5668;52.012;8.724;2023-05-28T03:50:40;7.30;;;6.03;;
11222;SDS011;5668;52.012;8.724;2023-05-28T03:53:08;6.97;;;5.80;;
11222;SDS011;5668;52.012;8.724;2023-05-28T03:55:35;7.33;;;5.60;;
11222;SDS011;5668;52.012;8.724;2023-05-28T03:58:03;7.67;;;5.63;;
11222;SDS011;5668;52.012;8.724;2023-05-28T04:00:32;7.50;;;5.70;;
11222;SDS011;5668;52.012;8.724;2023-05-28T04:02:59;9.03;;;5.90;;
11222;SDS011;5668;52.012;8.724;2023-05-28T04:05:28;8.10;;;5.87;;
11222;SDS011;5668;52.012;8.724;2023-05-28T04:07:55;7.57;;;5.87;;
11222;SDS011;5668;52.012;8.724;2023-05-28T04:10:24;7.50;;;5.27;;
11222;SDS011;5668;52.012;8.724;2023-05-28T04:12:52;8.57;;;5.70;;
11222;SDS011;5668;52.012;8.724;2023-05-28T04:15:19;8.47;;;5.90;;
11222;SDS011;5668;52.012;8.724;2023-05-28T04:17:48;8.20;;;5.87;;
11222;SDS011;5668;52.012;8.724;2023-05-28T04:20:15;7.13;;;5.47;;
11222;SDS011;5668;52.012;8.724;2023-05-28T04:22:43;7.23;;;5.50;;
11222;SDS011;5668;52.012;8.724;2023-05-28T04:25:12;7.90;;;5.67;;
11222;SDS011;5668;52.012;8.724;2023-05-28T04:27:39;6.53;;;5.43;;
11222;SDS011;5668;52.012;8.724;2023-05-28T04:30:07;5.57;;;5.00;;
11222;SDS011;5668;52.012;8.724;2023-05-28T04:32:36;6.43;;;5.60;;
11222;SDS011;5668;52.012;8.724;2023-05-28T04:35:05;6.23;;;5.27;;
11222;SDS011;5668;52.012;8.724;2023-05-28T04:37:34;6.57;;;5.57;;
11222;SDS011;5668;52.012;8.724;2023-05-28T04:40:02;6.90;;;5.40;;
11222;SDS011;5668;52.012;8.724;2023-05-28T04:42:30;8.03;;;6.07;;
11222;SDS011;5668;52.012;8.724;2023-05-28T04:44:57;7.47;;;5.13;;
11222;SDS011;5668;52.012;8.724;2023-05-28T04:47:25;6.60;;;5.57;;
11222;SDS011;5668;52.012;8.724;2023-05-28T04:49:52;6.63;;;5.60;;
11222;SDS011;5668;52.012;8.724;2023-05-28T04:52:23;7.17;;;5.07;;
11222;SDS011;5668;52.012;8.724;2023-05-28T04:54:51;7.87;;;5.63;;
11222;SDS011;5668;52.012;8.724;2023-05-28T04:57:19;8.80;;;5.40;;
11222;SDS011;5668;52.012;8.724;2023-05-28T04:59:46;6.70;;;5.23;;
11222;SDS011;5668;52.012;8.724;2023-05-28T05:02:14;6.53;;;5.80;;
11222;SDS011;5668;52.012;8.724;2023-05-28T05:04:42;7.73;;;5.80;;
11222;SDS011;5668;52.012;8.724;2023-05-28T05:07:09;9.87;;;6.33;;
11222;SDS011;5668;52.012;8.724;2023-05-28T05:09:38;10.30;;;6.63;;
11222;SDS011;5668;52.012;8.724;2023-05-28T05:12:05;8.03;;;5.60;;
11222;SDS011;5668;52.012;8.724;2023-05-28T05:14:34;8.47;;;6.50;;
11222;SDS011;5668;52.012;8.724;2023-05-28T05:17:01;8.17;;;5.90;;
11222;SDS011;5668;52.012;8.724;2023-05-28T05:19:31;7.40;;;5.87;;
11222;SDS011;5668;52.012;8.724;2023-05-28T05:21:58;8.03;;;6.40;;
11222;SDS011;5668;52.012;8.724;2023-05-28T05:24:26;6.50;;;5.83;;
11222;SDS011;5668;52.012;8.724;2023-05-28T05:26:54;6.33;;;5.37;;
11222;SDS011;5668;52.012;8.724;2023-05-28T05:29:22;7.87;;;6.17;;
11222;SDS011;5668;52.012;8.724;2023-05-28T05:32:19;7.27;;;6.00;;
11222;SDS011;5668;52.012;8.724;2023-05-28T05:34:46;9.30;;;6.50;;
11222;SDS011;5668;52.012;8.724;2023-05-28T05:37:13;8.50;;;6.50;;
11222;SDS011;5668;52.012;8.724;2023-05-28T05:39:40;9.90;;;6.63;;
11222;SDS011;5668;52.012;8.724;2023-05-28T05:42:09;8.20;;;6.80;;
11222;SDS011;5668;52.012;8.724;2023-05-28T05:44:36;9.87;;;6.90;;
11222;SDS011;5668;52.012;8.724;2023-05-28T05:47:04;9.00;;;6.83;;
11222;SDS011;5668;52.012;8.724;2023-05-28T05:49:31;8.10;;;6.17;;
11222;SDS011;5668;52.012;8.724;2023-05-28T05:51:59;7.23;;;5.97;;
11222;SDS011;5668;52.012;8.724;2023-05-28T05:54:26;8.97;;;6.33;;
11222;SDS011;5668;52.012;8.724;2023-05-28T05:56:54;6.83;;;5.60;;
11222;SDS011;5668;52.012;8.724;2023-05-28T05:59:22;7.10;;;5.57;;
11222;SDS011;5668;52.012;8.724;2023-05-28T06:01:50;9.13;;;5.73;;
11222;SDS011;5668;52.012;8.724;2023-05-28T06:04:17;8.33;;;5.67;;
11222;SDS011;5668;52.012;8.724;2023-05-28T06:06:44;8.30;;;6.60;;
11222;SDS011;5668;52.012;8.724;2023-05-28T06:09:11;8.13;;;6.90;;
11222;SDS011;5668;52.012;8.724;2023-05-28T06:11:38;7.90;;;6.40;;
11222;SDS011;5668;52.012;8.724;2023-05-28T06:14:05;9.73;;;6.93;;
11222;SDS011;5668;52.012;8.724;2023-05-28T06:16:34;7.43;;;6.33;;
11222;SDS011;5668;52.012;8.724;2023-05-28T06:19:01;7.43;;;5.67;;
11222;SDS011;5668;52.012;8.724;2023-05-28T06:21:29;8.53;;;6.60;;
11222;SDS011;5668;52.012;8.724;2023-05-28T06:23:57;8.20;;;6.30;;
11222;SDS011;5668;52.012;8.724;2023-05-28T06:26:24;11.83;;;6.17;;
11222;SDS011;5668;52.012;8.724;2023-05-28T06:28:52;7.97;;;5.97;;
11222;SDS011;5668;52.012;8.724;2023-05-28T06:31:19;11.27;;;6.25;;
11222;SDS011;5668;52.012;8.724;2023-05-28T06:33:49;8.83;;;6.37;;
11222;SDS011;5668;52.012;8.724;2023-05-28T06:36:16;9.35;;;6.35;;
11222;SDS011;5668;52.012;8.724;2023-05-28T06:38:44;8.20;;;5.65;;
11222;SDS011;5668;52.012;8.724;2023-05-28T06:41:11;9.82;;;6.40;;
11222;SDS011;5668;52.012;8.724;2023-05-28T06:43:38;7.68;;;5.75;;
11222;SDS011;5668;52.012;8.724;2023-05-28T06:46:05;8.18;;;5.60;;
11222;SDS011;5668;52.012;8.724;2023-05-28T06:48:33;6.43;;;5.72;;
11222;SDS011;5668;52.012;8.724;2023-05-28T06:51:02;9.82;;;6.00;;
11222;SDS011;5668;52.012;8.724;2023-05-28T06:53:29;8.40;;;5.40;;
11222;SDS011;5668;52.012;8.724;2023-05-28T06:55:56;10.65;;;5.13;;
11222;SDS011;5668;52.012;8.724;2023-05-28T06:58:24;8.25;;;5.40;;
11222;SDS011;5668;52.012;8.724;2023-05-28T07:00:51;8.27;;;5.00;;
11222;SDS011;5668;52.012;8.724;2023-05-28T07:03:18;8.85;;;5.70;;
11222;SDS011;5668;52.012;8.724;2023-05-28T07:05:45;7.93;;;5.30;;
11222;SDS011;5668;52.012;8.724;2023-05-28T07:08:14;10.75;;;5.47;;
11222;SDS011;5668;52.012;8.724;2023-05-28T07:10:41;7.55;;;5.03;;
11222;SDS011;5668;52.012;8.724;2023-05-28T07:13:08;6.57;;;5.05;;
11222;SDS011;5668;52.012;8.724;2023-05-28T07:15:35;10.88;;;5.30;;
11222;SDS011;5668;52.012;8.724;2023-05-28T07:18:03;7.32;;;5.30;;
11222;SDS011;5668;52.012;8.724;2023-05-28T07:20:30;5.75;;;4.30;;
11222;SDS011;5668;52.012;8.724;2023-05-28T07:22:57;6.32;;;4.38;;
11222;SDS011;5668;52.012;8.724;2023-05-28T07:25:26;7.63;;;5.03;;
11222;SDS011;5668;52.012;8.724;2023-05-28T07:27:53;8.00;;;4.60;;
11222;SDS011;5668;52.012;8.724;2023-05-28T07:30:20;7.38;;;4.80;;
11222;SDS011;5668;52.012;8.724;2023-05-28T07:32:48;5.57;;;4.43;;
11222;SDS011;5668;52.012;8.724;2023-05-28T07:35:15;6.32;;;4.47;;
11222;SDS011;5668;52.012;8.724;2023-05-28T07:37:42;6.03;;;4.68;;
11222;SDS011;5668;52.012;8.724;2023-05-28T07:40:10;8.23;;;5.13;;
11222;SDS011;5668;52.012;8.724;2023-05-28T07:42:40;5.90;;;4.55;;
11222;SDS011;5668;52.012;8.724;2023-05-28T07:45:08;9.43;;;5.18;;
11222;SDS011;5668;52.012;8.724;2023-05-28T07:47:35;6.15;;;4.38;;
11222;SDS011;5668;52.012;8.724;2023-05-28T07:50:03;6.85;;;4.57;;
11222;SDS011;5668;52.012;8.724;2023-05-28T07:52:32;8.82;;;4.60;;
11222;SDS011;5668;52.012;8.724;2023-05-28T07:55:00;6.13;;;4.35;;
11222;SDS011;5668;52.012;8.724;2023-05-28T07:57:28;6.82;;;4.72;;
11222;SDS011;5668;52.012;8.724;2023-05-28T07:59:57;5.25;;;3.97;;
11222;SDS011;5668;52.012;8.724;2023-05-28T08:02:25;5.38;;;3.67;;
11222;SDS011;5668;52.012;8.724;2023-05-28T08:04:53;7.03;;;3.92;;
11222;SDS011;5668;52.012;8.724;2023-05-28T08:07:20;5.72;;;4.15;;
11222;SDS011;5668;52.012;8.724;2023-05-28T08:09:47;5.28;;;3.50;;
11222;SDS011;5668;52.012;8.724;2023-05-28T08:12:15;4.15;;;3.15;;
11222;SDS011;5668;52.012;8.724;2023-05-28T08:14:43;4.32;;;3.03;;
11222;SDS011;5668;52.012;8.724;2023-05-28T08:17:11;5.30;;;2.85;;
11222;SDS011;5668;52.012;8.724;2023-05-28T08:19:38;4.63;;;3.15;;
11222;SDS011;5668;52.012;8.724;2023-05-28T08:22:06;4.45;;;2.80;;
11222;SDS011;5668;52.012;8.724;2023-05-28T08:24:33;4.65;;;2.75;;
11222;SDS011;5668;52.012;8.724;2023-05-28T08:27:00;5.43;;;3.00;;
11222;SDS011;5668;52.012;8.724;2023-05-28T08:29:28;3.95;;;2.53;;
11222;SDS011;5668;52.012;8.724;2023-05-28T08:31:55;4.15;;;2.53;;
11222;SDS011;5668;52.012;8.724;2023-05-28T08:34:25;4.88;;;2.60;;
11222;SDS011;5668;52.012;8.724;2023-05-28T08:36:52;3.58;;;2.30;;
11222;SDS011;5668;52.012;8.724;2023-05-28T08:39:20;4.20;;;2.13;;
11222;SDS011;5668;52.012;8.724;2023-05-28T08:41:49;4.70;;;2.30;;
11222;SDS011;5668;52.012;8.724;2023-05-28T08:44:16;3.70;;;2.47;;
11222;SDS011;5668;52.012;8.724;2023-05-28T08:46:43;3.42;;;2.10;;
11222;SDS011;5668;52.012;8.724;2023-05-28T08:49:11;3.65;;;2.20;;
11222;SDS011;5668;52.012;8.724;2023-05-28T08:51:44;3.33;;;2.40;;
11222;SDS011;5668;52.012;8.724;2023-05-28T08:54:18;2.70;;;1.95;;
11222;SDS011;5668;52.012;8.724;2023-05-28T08:56:45;3.75;;;2.42;;
11222;SDS011;5668;52.012;8.724;2023-05-28T08:59:13;3.50;;;1.98;;
11222;SDS011;5668;52.012;8.724;2023-05-28T09:01:42;4.53;;;2.33;;
11222;SDS011;5668;52.012;8.724;2023-05-28T09:04:10;4.45;;;2.40;;
11222;SDS011;5668;52.012;8.724;2023-05-28T09:06:37;4.00;;;2.10;;
11222;SDS011;5668;52.012;8.724;2023-05-28T09:09:06;3.78;;;2.17;;
11222;SDS011;5668;52.012;8.724;2023-05-28T09:11:34;4.32;;;2.10;;
11222;SDS011;5668;52.012;8.724;2023-05-28T09:14:07;4.45;;;2.35;;
11222;SDS011;5668;52.012;8.724;2023-05-28T09:16:39;5.13;;;2.42;;
11222;SDS011;5668;52.012;8.724;2023-05-28T09:19:07;3.83;;;2.28;;
11222;SDS011;5668;52.012;8.724;2023-05-28T09:21:34;2.90;;;1.88;;
11222;SDS011;5668;52.012;8.724;2023-05-28T09:24:03;5.43;;;2.53;;
11222;SDS011;5668;52.012;8.724;2023-05-28T09:26:32;3.10;;;2.15;;
11222;SDS011;5668;52.012;8.724;2023-05-28T09:28:59;3.15;;;2.25;;
11222;SDS011;5668;52.012;8.724;2023-05-28T09:31:28;4.00;;;2.33;;
11222;SDS011;5668;52.012;8.724;2023-05-28T09:33:58;3.45;;;2.30;;
11222;SDS011;5668;52.012;8.724;2023-05-28T09:36:28;4.07;;;2.20;;
11222;SDS011;5668;52.012;8.724;2023-05-28T09:38:56;4.10;;;2.00;;
11222;SDS011;5668;52.012;8.724;2023-05-28T09:41:25;4.45;;;2.10;;
11222;SDS011;5668;52.012;8.724;2023-05-28T09:43:59;4.72;;;2.10;;
11222;SDS011;5668;52.012;8.724;2023-05-28T09:46:27;3.45;;;2.40;;
11222;SDS011;5668;52.012;8.724;2023-05-28T09:48:56;3.95;;;2.30;;
11222;SDS011;5668;52.012;8.724;2023-05-28T09:51:24;4.13;;;2.30;;
11222;SDS011;5668;52.012;8.724;2023-05-28T09:53:55;4.07;;;2.20;;
11222;SDS011;5668;52.012;8.724;2023-05-28T09:56:25;3.85;;;2.08;;
11222;SDS011;5668;52.012;8.724;2023-05-28T09:58:56;5.15;;;2.55;;
11222;SDS011;5668;52.012;8.724;2023-05-28T10:01:24;4.18;;;2.40;;
11222;SDS011;5668;52.012;8.724;2023-05-28T10:03:57;5.68;;;2.45;;
11222;SDS011;5668;52.012;8.724;2023-05-28T10:06:30;5.05;;;2.42;;
11222;SDS011;5668;52.012;8.724;2023-05-28T10:09:01;6.13;;;2.60;;
11222;SDS011;5668;52.012;8.724;2023-05-28T10:11:34;6.30;;;2.53;;
11222;SDS011;5668;52.012;8.724;2023-05-28T10:14:04;5.55;;;2.42;;
11222;SDS011;5668;52.012;8.724;2023-05-28T10:16:33;5.85;;;2.70;;
11222;SDS011;5668;52.012;8.724;2023-05-28T10:19:01;3.33;;;2.40;;
11222;SDS011;5668;52.012;8.724;2023-05-28T10:21:29;4.15;;;2.35;;
11222;SDS011;5668;52.012;8.724;2023-05-28T10:23:56;5.32;;;2.58;;
11222;SDS011;5668;52.012;8.724;2023-05-28T10:26:24;4.32;;;2.10;;
11222;SDS011;5668;52.012;8.724;2023-05-28T10:28:56;3.70;;;2.20;;
11222;SDS011;5668;52.012;8.724;2023-05-28T10:31:23;3.20;;;1.77;;
11222;SDS011;5668;52.012;8.724;2023-05-28T10:33:51;4.75;;;2.25;;
11222;SDS011;5668;52.012;8.724;2023-05-28T10:36:18;4.82;;;2.50;;
11222;SDS011;5668;52.012;8.724;2023-05-28T10:38:46;3.25;;;2.35;;
11222;SDS011;5668;52.012;8.724;2023-05-28T10:41:24;5.38;;;2.45;;
11222;SDS011;5668;52.012;8.724;2023-05-28T10:44:00;4.07;;;2.60;;
11222;SDS011;5668;52.012;8.724;2023-05-28T10:46:34;5.88;;;2.47;;
11222;SDS011;5668;52.012;8.724;2023-05-28T10:49:09;3.17;;;2.17;;
11222;SDS011;5668;52.012;8.724;2023-05-28T10:51:51;3.05;;;2.10;;
11222;SDS011;5668;52.012;8.724;2023-05-28T10:54:24;4.05;;;2.45;;
11222;SDS011;5668;52.012;8.724;2023-05-28T10:57:07;5.55;;;2.47;;
11222;SDS011;5668;52.012;8.724;2023-05-28T10:59:38;4.55;;;2.30;;
11222;SDS011;5668;52.012;8.724;2023-05-28T11:02:09;8.98;;;2.42;;
11222;SDS011;5668;52.012;8.724;2023-05-28T11:04:37;3.88;;;2.00;;
11222;SDS011;5668;52.012;8.724;2023-05-28T11:07:06;3.38;;;1.98;;
11222;SDS011;5668;52.012;8.724;2023-05-28T11:09:34;3.50;;;2.15;;
11222;SDS011;5668;52.012;8.724;2023-05-28T11:12:01;4.45;;;2.20;;
11222;SDS011;5668;52.012;8.724;2023-05-28T11:14:33;2.67;;;2.08;;
11222;SDS011;5668;52.012;8.724;2023-05-28T11:17:09;2.72;;;2.00;;
11222;SDS011;5668;52.012;8.724;2023-05-28T11:19:39;3.38;;;2.05;;
11222;SDS011;5668;52.012;8.724;2023-05-28T11:22:07;4.70;;;2.38;;
11222;SDS011;5668;52.012;8.724;2023-05-28T11:24:50;4.05;;;2.50;;
11222;SDS011;5668;52.012;8.724;2023-05-28T11:27:20;3.83;;;2.50;;
11222;SDS011;5668;52.012;8.724;2023-05-28T11:29:48;3.72;;;2.30;;
11222;SDS011;5668;52.012;8.724;2023-05-28T11:32:21;3.30;;;2.30;;
11222;SDS011;5668;52.012;8.724;2023-05-28T11:34:48;4.22;;;2.22;;
11222;SDS011;5668;52.012;8.724;2023-05-28T11:37:22;5.00;;;2.75;;
11222;SDS011;5668;52.012;8.724;2023-05-28T11:39:51;4.22;;;2.47;;
11222;SDS011;5668;52.012;8.724;2023-05-28T11:42:19;3.90;;;2.67;;
11222;SDS011;5668;52.012;8.724;2023-05-28T11:44:47;4.35;;;2.47;;
11222;SDS011;5668;52.012;8.724;2023-05-28T11:47:16;4.10;;;2.40;;
11222;SDS011;5668;52.012;8.724;2023-05-28T11:49:45;4.32;;;2.40;;
11222;SDS011;5668;52.012;8.724;2023-05-28T11:52:13;4.93;;;2.70;;
11222;SDS011;5668;52.012;8.724;2023-05-28T11:54:42;4.50;;;2.63;;
11222;SDS011;5668;52.012;8.724;2023-05-28T11:57:15;4.05;;;2.30;;
11222;SDS011;5668;52.012;8.724;2023-05-28T11:59:56;4.05;;;2.70;;
11222;SDS011;5668;52.012;8.724;2023-05-28T12:02:25;6.40;;;2.80;;
11222;SDS011;5668;52.012;8.724;2023-05-28T12:04:54;3.80;;;2.42;;
11222;SDS011;5668;52.012;8.724;2023-05-28T12:07:26;4.68;;;2.40;;
11222;SDS011;5668;52.012;8.724;2023-05-28T12:10:04;4.63;;;2.60;;
11222;SDS011;5668;52.012;8.724;2023-05-28T12:12:34;4.03;;;2.90;;
11222;SDS011;5668;52.012;8.724;2023-05-28T12:15:05;5.18;;;2.40;;
11222;SDS011;5668;52.012;8.724;2023-05-28T12:17:34;4.82;;;2.70;;
11222;SDS011;5668;52.012;8.724;2023-05-28T12:20:06;4.32;;;2.58;;
11222;SDS011;5668;52.012;8.724;2023-05-28T12:22:58;3.85;;;2.35;;
11222;SDS011;5668;52.012;8.724;2023-05-28T12:25:26;4.53;;;2.47;;
11222;SDS011;5668;52.012;8.724;2023-05-28T12:27:54;3.85;;;2.47;;
11222;SDS011;5668;52.012;8.724;2023-05-28T12:30:21;5.05;;;2.42;;
11222;SDS011;5668;52.012;8.724;2023-05-28T12:32:48;4.72;;;2.95;;
11222;SDS011;5668;52.012;8.724;2023-05-28T12:35:17;4.20;;;2.40;;
11222;SDS011;5668;52.012;8.724;2023-05-28T12:37:44;4.15;;;2.35;;
11222;SDS011;5668;52.012;8.724;2023-05-28T12:40:11;4.93;;;2.60;;
11222;SDS011;5668;52.012;8.724;2023-05-28T12:42:39;3.22;;;2.10;;
11222;SDS011;5668;52.012;8.724;2023-05-28T12:45:07;4.40;;;2.53;;
11222;SDS011;5668;52.012;8.724;2023-05-28T12:47:35;8.00;;;2.67;;
11222;SDS011;5668;52.012;8.724;2023-05-28T12:50:02;4.35;;;2.65;;
11222;SDS011;5668;52.012;8.724;2023-05-28T12:52:32;4.15;;;2.50;;
11222;SDS011;5668;52.012;8.724;2023-05-28T12:54:59;5.43;;;2.70;;
11222;SDS011;5668;52.012;8.724;2023-05-28T12:57:30;6.15;;;2.75;;
11222;SDS011;5668;52.012;8.724;2023-05-28T12:59:57;5.03;;;2.75;;
11222;SDS011;5668;52.012;8.724;2023-05-28T13:02:24;6.20;;;2.22;;
11222;SDS011;5668;52.012;8.724;2023-05-28T13:04:51;6.18;;;2.60;;
11222;SDS011;5668;52.012;8.724;2023-05-28T13:07:19;4.55;;;2.40;;
11222;SDS011;5668;52.012;8.724;2023-05-28T13:09:49;3.88;;;2.42;;
11222;SDS011;5668;52.012;8.724;2023-05-28T13:12:16;5.50;;;2.90;;
11222;SDS011;5668;52.012;8.724;2023-05-28T13:14:43;5.00;;;2.20;;
11222;SDS011;5668;52.012;8.724;2023-05-28T13:17:10;3.80;;;2.45;;
11222;SDS011;5668;52.012;8.724;2023-05-28T13:19:37;3.72;;;2.30;;
11222;SDS011;5668;52.012;8.724;2023-05-28T13:22:05;3.90;;;2.60;;
11222;SDS011;5668;52.012;8.724;2023-05-28T13:24:35;5.50;;;2.50;;
11222;SDS011;5668;52.012;8.724;2023-05-28T13:27:04;5.82;;;2.47;;
11222;SDS011;5668;52.012;8.724;2023-05-28T13:29:31;5.80;;;2.22;;
11222;SDS011;5668;52.012;8.724;2023-05-28T13:31:59;4.22;;;2.28;;
11222;SDS011;5668;52.012;8.724;2023-05-28T13:34:26;4.47;;;2.30;;
11222;SDS011;5668;52.012;8.724;2023-05-28T13:36:53;5.88;;;2.67;;
11222;SDS011;5668;52.012;8.724;2023-05-28T13:39:20;4.82;;;2.30;;
11222;SDS011;5668;52.012;8.724;2023-05-28T13:41:50;3.15;;;2.20;;
11222;SDS011;5668;52.012;8.724;2023-05-28T13:44:19;4.35;;;2.38;;
11222;SDS011;5668;52.012;8.724;2023-05-28T13:46:48;2.47;;;2.13;;
11222;SDS011;5668;52.012;8.724;2023-05-28T13:49:16;4.43;;;2.50;;
11222;SDS011;5668;52.012;8.724;2023-05-28T13:51:43;4.07;;;2.30;;
11222;SDS011;5668;52.012;8.724;2023-05-28T13:54:11;4.57;;;2.85;;
11222;SDS011;5668;52.012;8.724;2023-05-28T13:56:39;3.63;;;2.47;;
11222;SDS011;5668;52.012;8.724;2023-05-28T13:59:07;5.07;;;2.47;;
11222;SDS011;5668;52.012;8.724;2023-05-28T14:01:37;4.40;;;2.45;;
11222;SDS011;5668;52.012;8.724;2023-05-28T14:04:04;3.92;;;2.65;;
11222;SDS011;5668;52.012;8.724;2023-05-28T14:06:32;4.95;;;2.72;;
11222;SDS011;5668;52.012;8.724;2023-05-28T14:09:00;3.38;;;2.10;;
11222;SDS011;5668;52.012;8.724;2023-05-28T14:11:30;3.55;;;2.33;;
11222;SDS011;5668;52.012;8.724;2023-05-28T14:13:57;3.95;;;2.08;;
11222;SDS011;5668;52.012;8.724;2023-05-28T14:16:25;2.45;;;1.83;;
11222;SDS011;5668;52.012;8.724;2023-05-28T14:18:59;4.30;;;2.17;;
11222;SDS011;5668;52.012;8.724;2023-05-28T14:21:27;4.28;;;2.30;;
11222;SDS011;5668;52.012;8.724;2023-05-28T14:23:54;4.00;;;2.42;;
11222;SDS011;5668;52.012;8.724;2023-05-28T14:26:21;3.25;;;2.42;;
11222;SDS011;5668;52.012;8.724;2023-05-28T14:28:48;3.38;;;2.25;;
11222;SDS011;5668;52.012;8.724;2023-05-28T14:31:16;2.85;;;2.25;;
11222;SDS011;5668;52.012;8.724;2023-05-28T14:33:43;3.92;;;2.00;;
11222;SDS011;5668;52.012;8.724;2023-05-28T14:36:12;3.33;;;2.20;;
11222;SDS011;5668;52.012;8.724;2023-05-28T14:38:39;4.65;;;2.20;;
11222;SDS011;5668;52.012;8.724;2023-05-28T14:41:06;3.58;;;2.30;;
11222;SDS011;5668;52.012;8.724;2023-05-28T14:43:35;3.78;;;2.42;;
11222;SDS011;5668;52.012;8.724;2023-05-28T14:46:03;4.78;;;2.40;;
11222;SDS011;5668;52.012;8.724;2023-05-28T14:48:30;2.92;;;2.10;;
11222;SDS011;5668;52.012;8.724;2023-05-28T14:50:57;3.97;;;2.38;;
11222;SDS011;5668;52.012;8.724;2023-05-28T14:53:28;3.55;;;2.30;;
11222;SDS011;5668;52.012;8.724;2023-05-28T14:55:57;3.17;;;2.20;;
11222;SDS011;5668;52.012;8.724;2023-05-28T14:58:25;2.17;;;1.77;;
11222;SDS011;5668;52.012;8.724;2023-05-28T15:00:52;2.33;;;1.90;;
11222;SDS011;5668;52.012;8.724;2023-05-28T15:03:20;4.00;;;2.30;;
11222;SDS011;5668;52.012;8.724;2023-05-28T15:05:47;3.45;;;2.33;;
11222;SDS011;5668;52.012;8.724;2023-05-28T15:08:14;4.80;;;2.22;;